Flight Track Log - Related Links

Times and Time Zones

All times are in EDT time to prevent confusion due to time zone crossing. See the TMC875 flight status page for this flight to view local times or setup timezone preferences in your user account.

Time Position Orientation Groundspeed Altitude Reporting Facility
EDT Latitude Longitude Course Direction KTS MPH feet Rate Location/Type
Fri 06:20:11 PM 42.3667 -70.9667 77° East 179 206 900  Level KA90
Fri 06:21:29 PM 42.3833 -70.8667 77° East 219 252 5,500 3,542 Climbing KA90
Fri 06:22:35 PM 42.3833 -70.7667 90° East 273 314 9,400 3,474 Climbing KA90
Fri 06:23:04 PM 42.3622 -70.7206 122° Southeast 305 351 11,000 2,966 Climbing Boston Center
Fri 06:24:04 PM 42.2889 -70.6831 159° South 316 364 13,800 1,700 Climbing Boston Center
Fri 06:25:04 PM 42.1986 -70.6436 162° South 317 365 14,400 2,050 Climbing Boston Center
Fri 06:26:04 PM 42.1006 -70.6325 175° South 340 391 17,900 3,000 Climbing Boston Center
Fri 06:27:04 PM 42.0197 -70.6656 197° South 340 391 20,400 2,500 Climbing Boston Center
Fri 06:28:04 PM 41.9267 -70.7100 200° South 340 391 22,900 2,450 Climbing Boston Center
Fri 06:29:04 PM 41.8333 -70.7489 197° South 350 403 25,300 2,500 Climbing Boston Center
Fri 06:30:04 PM 41.7386 -70.8153 208° Southwest 361 415 27,900 2,100 Climbing Boston Center
Fri 06:31:04 PM 41.6603 -70.8842 213° Southwest 361 415 29,500 1,650 Climbing Boston Center
Fri 06:32:04 PM 41.5694 -70.9528 209° Southwest 367 422 31,200 1,600 Climbing Boston Center
Fri 06:33:04 PM 41.5000 -71.0514 227° Southwest 373 429 32,700 1,300 Climbing Boston Center
Fri 06:34:04 PM 41.4303 -71.1583 229° Southwest 373 429 33,800 1,100 Climbing Boston Center
Fri 06:35:04 PM 41.3628 -71.2703 231° Southwest 385 443 34,900 1,100 Climbing Boston Center
Fri 06:36:04 PM 41.2950 -71.3792 230° Southwest 385 443 36,000 1,000 Climbing Boston Center
Fri 06:37:04 PM 41.2294 -71.4906 232° Southwest 385 443 36,900 850 Climbing Boston Center
Fri 06:38:04 PM 41.1553 -71.6075 230° Southwest 390 449 37,700 550 Climbing Boston Center
Fri 06:39:04 PM 41.0936 -71.7267 236° Southwest 385 443 38,000 350 Climbing Boston Center
Fri 06:40:04 PM 41.0169 -71.8294 225° Southwest 390 449 38,400 400 Climbing Boston Center
Fri 06:41:04 PM 40.9467 -71.9289 227° Southwest 402 463 38,800 350 Climbing Boston Center
Fri 06:42:04 PM 40.8617 -72.0503 227° Southwest 407 468 39,100 450 Climbing Boston Center
Fri 06:43:04 PM 40.7869 -72.1386 222° Southwest 407 468 39,700 450 Climbing Boston Center
Fri 06:44:04 PM 40.6831 -72.2267 213° Southwest 414 476 40,000 150 Climbing Boston Center
Fri 06:45:04 PM 40.5853 -72.3061 212° Southwest 407 468 40,000  Level Boston Center
Fri 06:46:04 PM 40.4894 -72.3911 214° Southwest 418 481 40,000  Level Boston Center
Fri 06:47:04 PM 40.3956 -72.4728 214° Southwest 418 481 40,000  Level Boston Center
Fri 06:48:04 PM 40.2978 -72.5544 213° Southwest 418 481 40,000  Level Boston Center
Fri 06:49:04 PM 40.2183 -72.6194 212° Southwest 418 481 40,000  Level Boston Center
Fri 06:50:04 PM 40.1183 -72.7142 216° Southwest 418 481 40,000 -50 Level Boston Center
Fri 06:51:04 PM 40.0222 -72.7978 214° Southwest 418 481 39,900  Descending Boston Center
Fri 06:52:43 PM 39.9014 -72.9733 228° Southwest 409 471 40,000 38 Climbing Washington Center
Fri 06:53:43 PM 39.8331 -73.0867 232° Southwest 404 465 40,000 -51 Level Washington Center
Fri 06:54:41 PM 39.7603 -73.1972 229° Southwest 410 472 39,900  Descending Washington Center
Fri 06:55:41 PM 39.6897 -73.3103 231° Southwest 410 472 40,000 50 Climbing Washington Center
Fri 06:56:41 PM 39.6128 -73.4311 230° Southwest 410 472 40,000  Level Washington Center
Fri 06:57:42 PM 39.5558 -73.5192 230° Southwest 410 472 40,000 -49 Level Washington Center
Fri 06:58:43 PM 39.4069 -73.5850 199° South 439 505 39,900  Descending Washington Center
Fri 06:59:43 PM 39.3147 -73.6708 216° Southwest 433 498 40,000  Climbing Washington Center
Fri 07:00:42 PM 39.2200 -73.7564 215° Southwest 428 493 39,900  Descending Washington Center
Fri 07:01:43 PM 39.1297 -73.8417 216° Southwest 418 481 40,000 50 Climbing Washington Center
Fri 07:02:41 PM 39.0328 -73.9269 214° Southwest 418 481 40,000  Level Washington Center
Fri 07:03:41 PM 38.9403 -74.0144 216° Southwest 418 481 40,000  Level Washington Center
Fri 07:04:42 PM 38.8475 -74.0992 215° Southwest 418 481 40,000 -49 Level Washington Center
Fri 07:05:43 PM 38.7547 -74.1808 214° Southwest 418 481 39,900  Descending Washington Center
Fri 07:06:41 PM 38.6597 -74.2678 216° Southwest 418 481 40,000  Climbing Washington Center
Fri 07:07:42 PM 38.5711 -74.3489 216° Southwest 418 481 39,900 -49 Descending Washington Center
Fri 07:08:43 PM 38.4739 -74.4356 215° Southwest 423 487 39,900  Level Washington Center
Fri 07:09:41 PM 38.3808 -74.5189 215° Southwest 423 487 39,900 51 Level Washington Center
Fri 07:10:41 PM 38.2878 -74.6025 215° Southwest 423 487 40,000  Climbing Washington Center
Fri 07:11:42 PM 38.1925 -74.6856 214° Southwest 418 481 39,900 -49 Descending Washington Center
Fri 07:12:43 PM 38.0972 -74.7633 213° Southwest 418 481 39,900  Level Washington Center
Fri 07:13:41 PM 38.0039 -74.8539 217° Southwest 424 488 39,900 50 Level Washington Center
Fri 07:14:42 PM 37.9086 -74.9364 214° Southwest 424 488 40,000 49 Climbing Washington Center
Fri 07:15:43 PM 37.8150 -75.0214 216° Southwest 424 488 40,000  Level Washington Center
Fri 07:16:41 PM 37.7175 -75.0983 212° Southwest 419 482 40,000 -51 Level Washington Center
Fri 07:17:41 PM 37.6261 -75.1853 217° Southwest 419 482 39,900 -50 Descending Washington Center
Fri 07:18:42 PM 37.5303 -75.2644 213° Southwest 419 482 39,900 49 Level Washington Center
Fri 07:19:43 PM 37.4344 -75.3461 214° Southwest 419 482 40,000 49 Climbing Washington Center
Fri 07:20:45 PM 37.3367 -75.4325 215° Southwest 419 482 40,000 -50 Level Washington Center
Fri 07:21:42 PM 37.2408 -75.5111 213° Southwest 419 482 39,900  Descending Washington Center
Fri 07:22:42 PM 37.1450 -75.5944 215° Southwest 419 482 40,000 50 Climbing Washington Center
Fri 07:23:43 PM 37.0489 -75.6753 214° Southwest 419 482 40,000 -50 Level Washington Center
Fri 07:24:41 PM 36.9611 -75.7453 213° Southwest 419 482 39,900  Descending Washington Center
Fri 07:25:42 PM 36.8506 -75.8022 202° Southwest 419 482 40,000 50 Climbing Washington Center
Fri 07:26:42 PM 36.7253 -75.8667 202° Southwest 440 506 40,000  Level Washington Center
Fri 07:27:43 PM 36.6125 -75.9258 203° Southwest 440 506 40,000  Level Washington Center
Fri 07:28:43 PM 36.5183 -75.9822 206° Southwest 434 499 40,000 -51 Level Washington Center
Fri 07:29:41 PM 36.4139 -76.0386 203° Southwest 428 493 39,900  Descending Washington Center
Fri 07:30:42 PM 36.3053 -76.0947 203° Southwest 423 487 40,000 49 Climbing Washington Center
Fri 07:31:43 PM 36.2006 -76.1506 203° Southwest 423 487 40,000 -50 Level Washington Center
Fri 07:32:43 PM 36.0939 -76.2064 203° Southwest 423 487 39,900  Descending Washington Center
Fri 07:33:41 PM 35.9894 -76.2594 202° Southwest 423 487 40,000  Climbing Washington Center
Fri 07:34:42 PM 35.8847 -76.3150 203° Southwest 423 487 39,900  Descending Washington Center
Fri 07:35:42 PM 35.7781 -76.3703 203° Southwest 418 481 40,000  Climbing Washington Center
Fri 07:36:43 PM 35.6753 -76.4231 203° Southwest 418 481 39,900 -50 Descending Washington Center
Fri 07:37:41 PM 35.5728 -76.4808 205° Southwest 418 481 39,900  Level Washington Center
Fri 07:38:41 PM 35.4700 -76.5331 202° Southwest 418 481 39,900  Level Washington Center
Fri 07:39:42 PM 35.3528 -76.5931 203° Southwest 413 475 39,900 50 Level Washington Center
Fri 07:40:42 PM 35.2625 -76.6400 203° Southwest 413 475 40,000 50 Climbing Washington Center
Fri 07:41:42 PM 35.1558 -76.6947 203° Southwest 413 475 40,000 -50 Level Washington Center
Fri 07:42:43 PM 35.0383 -76.7539 202° Southwest 413 475 39,900 -50 Descending Washington Center
Fri 07:43:41 PM 34.9375 -76.8133 206° Southwest 413 475 39,900 51 Level Washington Center
Fri 07:44:41 PM 34.8328 -76.8647 202° Southwest 413 475 40,000  Climbing Washington Center
Fri 07:45:42 PM 34.7278 -76.9189 203° Southwest 413 475 39,900  Descending Washington Center
Fri 07:46:43 PM 34.6208 -76.9725 202° Southwest 413 475 40,000  Climbing Washington Center
Fri 07:47:43 PM 34.5181 -77.0214 201° Southwest 413 475 39,900 -50 Descending Washington Center
Fri 07:48:44 PM 34.4131 -77.0747 203° Southwest 413 475 39,900  Level Washington Center
Fri 07:49:42 PM 34.3058 -77.1308 203° Southwest 413 475 39,900 51 Level Washington Center
Fri 07:50:42 PM 34.1967 -77.1814 201° Southwest 413 475 40,000  Climbing Washington Center
Fri 07:52:40 PM 33.9872 -77.2878 203° Southwest 430 495 39,900 -34 Descending Jacksonville Center
Fri 07:53:40 PM 33.8789 -77.3397 202° Southwest 425 489 39,900 50 Level Jacksonville Center
Fri 07:54:40 PM 33.7728 -77.3939 203° Southwest 425 489 40,000  Climbing Jacksonville Center
Fri 07:55:40 PM 33.6625 -77.4481 202° Southwest 425 489 39,900  Descending Jacksonville Center
Fri 07:56:40 PM 33.5542 -77.4997 202° Southwest 425 489 40,000 50 Climbing Jacksonville Center
Fri 07:57:40 PM 33.4583 -77.5503 204° Southwest 425 489 40,000  Level Jacksonville Center
Fri 07:58:40 PM 33.3478 -77.6042 202° Southwest 425 489 40,000  Level Jacksonville Center
Fri 07:59:40 PM 33.2375 -77.6553 201° Southwest 425 489 40,000 -50 Level Jacksonville Center
Fri 08:00:40 PM 33.1289 -77.7089 202° Southwest 425 489 39,900 -50 Descending Jacksonville Center
Fri 08:01:40 PM 33.0206 -77.7622 202° Southwest 425 489 39,900 50 Level Jacksonville Center
Fri 08:02:40 PM 32.9142 -77.8128 202° Southwest 425 489 40,000  Climbing Jacksonville Center
Fri 08:03:40 PM 32.8078 -77.8658 203° Southwest 425 489 39,900  Descending Jacksonville Center
Fri 08:04:40 PM 32.6972 -77.9189 202° Southwest 425 489 40,000  Climbing Jacksonville Center
Fri 08:05:40 PM 32.5864 -77.9692 201° Southwest 425 489 39,900 -50 Descending Jacksonville Center
Fri 08:06:40 PM 32.4758 -78.0244 203° Southwest 425 489 39,900 50 Level Jacksonville Center
Fri 08:07:40 PM 32.3653 -78.0794 203° Southwest 425 489 40,000 50 Climbing Jacksonville Center
Fri 08:08:40 PM 32.2567 -78.1319 202° Southwest 425 489 40,000 -50 Level Jacksonville Center
Fri 08:09:40 PM 32.1458 -78.1819 201° Southwest 425 489 39,900 -50 Descending Jacksonville Center
Fri 08:10:40 PM 32.0250 -78.2469 205° Southwest 425 489 39,900 50 Level Jacksonville Center
Fri 08:11:40 PM 31.9142 -78.2989 202° Southwest 430 495 40,000 50 Climbing Jacksonville Center
Fri 08:12:40 PM 31.8014 -78.3533 202° Southwest 436 502 40,000  Level Jacksonville Center
Fri 08:13:40 PM 31.6864 -78.4103 203° Southwest 438 504 40,000 -50 Level Jacksonville Center
Fri 08:14:40 PM 31.5817 -78.4569 201° Southwest 426 490 39,900 -50 Descending Jacksonville Center
Fri 08:15:40 PM 31.4747 -78.5083 202° Southwest 430 495 39,900 50 Level Jacksonville Center
Fri 08:16:40 PM 31.3619 -78.5597 201° Southwest 430 495 40,000 50 Climbing Jacksonville Center
Fri 08:17:40 PM 31.2528 -78.6086 201° Southwest 425 489 40,000  Level Jacksonville Center
Fri 08:18:40 PM 31.1419 -78.6597 202° Southwest 425 489 40,000 -50 Level Jacksonville Center
Fri 08:19:40 PM 31.0289 -78.7156 203° Southwest 430 495 39,900  Descending Jacksonville Center
Fri 08:20:40 PM 30.9322 -78.7611 202° Southwest 430 495 40,000 36 Climbing Jacksonville Center
Fri 08:22:27 PM 30.7333 -78.8531 202° Southwest 424 488 40,000  Level Miami Center
Fri 08:23:27 PM 30.6261 -78.9039 202° Southwest 433 498 40,000  Level Miami Center
Fri 08:24:27 PM 30.5131 -78.9547 201° Southwest 434 499 40,000 -50 Level Miami Center
Fri 08:25:27 PM 30.3956 -79.0006 199° South 434 499 39,900  Descending Miami Center
Fri 08:26:27 PM 30.2783 -79.0317 193° South 434 499 40,000  Climbing Miami Center
Fri 08:27:27 PM 30.1592 -79.0628 193° South 434 499 39,900  Descending Miami Center
Fri 08:28:27 PM 30.0356 -79.0964 193° South 440 506 40,000 50 Climbing Miami Center
Fri 08:29:27 PM 29.9161 -79.1369 196° South 434 499 40,000  Level Miami Center
Fri 08:30:27 PM 29.7989 -79.1678 193° South 434 499 40,000  Level Miami Center
Fri 08:31:27 PM 29.6817 -79.1964 192° South 434 499 40,000  Level Miami Center
Fri 08:32:27 PM 29.5642 -79.2272 193° South 434 499 40,000  Level Miami Center
Fri 08:33:27 PM 29.4492 -79.2511 190° South 423 487 40,000  Level Miami Center
Fri 08:34:27 PM 29.3381 -79.2842 195° South 428 493 40,000 -300 Level Miami Center
Fri 08:35:27 PM 29.2208 -79.3078 190° South 428 493 39,400 -700 Descending Miami Center
Fri 08:36:27 PM 29.1078 -79.3386 193° South 423 487 38,600 -700 Descending Miami Center
Fri 08:37:27 PM 29.0086 -79.3933 206° Southwest 400 460 38,000 -300 Descending Miami Center
Fri 08:38:27 PM 28.9361 -79.4817 227° Southwest 393 452 38,000  Level Miami Center
Fri 08:39:27 PM 28.8656 -79.5725 228° Southwest 388 447 38,000  Level Miami Center
Fri 08:40:27 PM 28.7969 -79.6656 230° Southwest 388 447 38,000  Level Miami Center
Fri 08:41:27 PM 28.7081 -79.7367 215° Southwest 383 441 38,000  Level Miami Center
Fri 08:42:27 PM 28.5908 -79.7525 187° South 383 441 38,000  Level Miami Center
Fri 08:43:27 PM 28.4697 -79.7542 181° South 405 466 38,000 -150 Level Miami Center
Fri 08:44:27 PM 28.3550 -79.7536 180° South 416 479 37,700 -1,000 Descending Miami Center
Fri 08:45:27 PM 28.2339 -79.7575 182° South 426 490 36,000 -1,700 Descending Miami Center
Fri 08:46:27 PM 28.1128 -79.7592 181° South 431 496 34,300 -1,650 Descending Miami Center
Fri 08:47:27 PM 27.9894 -79.7631 182° South 436 502 32,700 -1,350 Descending Miami Center
Fri 08:48:27 PM 27.8664 -79.7647 181° South 448 516 31,600 -1,100 Descending Miami Center
Fri 08:49:27 PM 27.7408 -79.7708 182° South 448 516 30,500 -1,350 Descending Miami Center
Fri 08:50:27 PM 27.6322 -79.7703 180° South 443 510 28,900 -1,750 Descending Miami Center
Fri 08:51:27 PM 27.5153 -79.7744 182° South 438 504 27,000 -2,250 Descending Miami Center
Fri 08:52:27 PM 27.3900 -79.7736 180° South 420 483 24,400 -1,500 Descending Miami Center
Fri 08:53:27 PM 27.2775 -79.7661 177° South 415 478 24,000 -250 Descending Miami Center
Fri 08:54:27 PM 27.1736 -79.7356 165° South 415 478 23,900 -650 Descending Miami Center
Fri 08:55:27 PM 27.0678 -79.7050 166° South 410 472 22,700 -1,300 Descending Miami Center
Fri 08:56:27 PM 26.9536 -79.6672 164° South 398 458 21,300 -1,750 Descending Miami Center
Fri 08:57:27 PM 26.8536 -79.6578 175° South 374 430 19,200 -2,372 Descending Miami Center
Fri 08:57:53 PM 26.8075 -79.6658 189° South 336 387 17,900 -2,706 Descending Miami Center
Fri 08:58:18 PM 26.7717 -79.6744 192° South 334 384 16,900 -2,930 Descending Miami Center
Fri 08:59:19 PM 26.6833 -79.7164 203° Southwest 338 389 13,700 -3,000 Descending Miami Center
Fri 09:00:20 PM 26.6011 -79.7564 204° Southwest 330 380 10,800 -2,534 Descending Miami Center
Fri 09:01:15 PM 26.5314 -79.7894 203° Southwest 286 329 8,800 -1,448 Descending Miami Center
Fri 09:02:16 PM 26.4514 -79.8244 201° Southwest 294 338 8,000 -645 Descending Miami Center
Fri 09:03:16 PM 26.3836 -79.8692 211° Southwest 291 335 7,500 -1,140 Descending Miami Center
Fri 09:04:17 PM 26.3442 -79.9517 242° Southwest 286 329 5,700 -1,832 Descending Miami Center
Fri 09:05:27 PM 26.3069 -80.0389 245° Southwest 278 320 3,500 -1,397 Descending Miami Center
Fri 09:06:13 PM 26.2828 -80.0939 244° Southwest 242 278 3,000 -561 Descending Miami Center
Fri 09:07:14 PM 26.2606 -80.1533 247° West 197 227 2,500 -492 Descending Miami Center
Fri 09:08:15 PM 26.2508 -80.2111 259° West 191 220 2,000 -492 Descending Miami Center
Fri 09:09:16 PM 26.2228 -80.2542 234° Southwest 175 201 1,500 -545 Descending Miami Center
Fri 09:10:16 PM 26.1917 -80.2372 154° Southeast 130 150 900 -645 Descending Miami Center
Fri 09:11:17 PM 26.1947 -80.2000 85° East 117 135 200 -689 Descending Miami Center
Fri 09:13:00 PM 26.1833 -80.1667 90° East  Level FlightAware Approximate

Login

Don't have an account? Register now (free) for customized features, flight alerts, and more!